Weather reports worldwide

Advertisment
Pajares/Valgrande, Spain (8031): temperature & dewpoint: 12.10.2018 03:00:00 - 18.10.2018 03:00:00 (CEST)Pajares/Valgrande, Spain (8031): wind speed & gusts: 12.10.2018 03:00:00 - 18.10.2018 03:00:00 (CEST)Pajares/Valgrande, Spain (8031): wind direction: 12.10.2018 03:00:00 - 18.10.2018 03:00:00 (CEST)Pajares/Valgrande, Spain (8031): precipitation: 12.10.2018 03:00:00 - 18.10.2018 03:00:00 (CEST)
Date & Time tt [°C] td [°C] ff [km/h] ff [kn] fx [km/h] fx [kn] dd rr [mm]
18.10.2018 03:00:00 6,8 5,6 2 1 5 3 NW 0,1
18.10.2018 02:00:00 6,8 5,6 3 1 6 3 NW -
18.10.2018 01:00:00 6,9 5,6 5 3 9 5 NNW 0,1
18.10.2018 00:00:00 6,9 5,6 4 2 7 4 NW 0,1
17.10.2018 23:00:00 6,8 5,6 2 1 5 3 WNW 0,1
17.10.2018 22:00:00 6,7 5,5 1 0 8 5 W 0,1
17.10.2018 21:00:00 6,8 5,5 3 1 11 6 NW 0,0
17.10.2018 20:00:00 6,9 5,5 6 3 16 9 W -
17.10.2018 19:00:00 8,0 6,4 5 3 16 8 WNW 0,0
17.10.2018 18:00:00 8,9 6,2 4 2 10 6 WNW 0,0
17.10.2018 17:00:00 11,9 4,3 6 3 15 8 W 0,0
17.10.2018 16:00:00 11,0 2,3 9 5 19 10 S 0,0
17.10.2018 15:00:00 10,7 3,4 9 5 27 14 S 0,0
17.10.2018 14:00:00 9,7 4,1 9 5 23 12 S -
17.10.2018 13:00:00 9,3 5,0 6 4 15 8 SE 0,0
17.10.2018 12:00:00 9,4 4,6 5 3 18 10 SE 0,0
17.10.2018 11:00:00 8,0 4,8 12 7 17 9 SSE 0,0
17.10.2018 10:00:00 7,7 5,0 12 6 18 10 S 0,0
17.10.2018 09:00:00 6,9 4,1 13 7 18 10 S 0,0
17.10.2018 08:00:00 6,9 3,9 12 7 18 10 S -
17.10.2018 07:00:00 7,1 3,8 14 7 19 10 S 0,0
17.10.2018 06:00:00 7,4 4,1 12 7 16 9 S 0,0
17.10.2018 05:00:00 6,0 3,2 8 4 14 7 S 0,0
17.10.2018 04:00:00 5,8 2,5 7 4 15 8 S 0,0
17.10.2018 03:00:00 7,7 5,1 10 6 16 9 S 0,0
17.10.2018 02:00:00 7,1 5,0 10 5 13 7 S -
17.10.2018 01:00:00 7,0 4,6 10 5 14 8 S 0,0
17.10.2018 00:00:00 7,0 4,6 11 6 13 7 SSW 0,0
16.10.2018 23:00:00 6,4 4,5 6 3 9 5 SSW 0,0
16.10.2018 22:00:00 7,3 5,6 6 3 9 5 SSW 0,0
16.10.2018 21:00:00 8,8 7,3 0 0 3 2 N 0,0
16.10.2018 20:00:00 8,8 7,3 1 1 7 4 NNW -
16.10.2018 19:00:00 9,0 7,0 2 1 9 5 NW 0,0
16.10.2018 18:00:00 9,8 6,8 3 2 9 5 NNW 0,0
16.10.2018 17:00:00 10,6 6,5 4 2 9 5 N 0,0
16.10.2018 16:00:00 11,5 6,4 3 2 9 5 NW 0,0
16.10.2018 15:00:00 13,2 5,3 4 2 19 10 SE 0,0
16.10.2018 14:00:00 11,5 4,3 8 5 20 11 S -
16.10.2018 13:00:00 10,5 5,3 8 5 20 11 ESE 0,0
16.10.2018 12:00:00 9,4 5,0 10 5 24 13 SSW 0,0
16.10.2018 11:00:00 8,1 4,8 8 4 16 9 S 0,0
16.10.2018 10:00:00 5,1 2,9 4 2 10 6 SSW 0,0
16.10.2018 09:00:00 4,9 3,2 9 5 12 6 SSW 0,0
16.10.2018 08:00:00 4,3 2,7 6 3 9 5 SSW -
16.10.2018 07:00:00 3,4 1,9 3 2 6 3 WSW 0,0
16.10.2018 06:00:00 5,3 3,8 3 2 6 3 W 0,0
16.10.2018 05:00:00 4,9 3,2 0 0 9 5 SW 0,0
16.10.2018 04:00:00 4,3 2,7 4 2 8 4 SSW 0,0
16.10.2018 03:00:00 4,5 2,9 6 3 8 4 SSW 0,0
16.10.2018 02:00:00 4,8 3,2 6 4 8 4 SSW -
16.10.2018 01:00:00 5,0 3,4 4 2 10 5 S 0,0
16.10.2018 00:00:00 6,6 5,3 1 0 8 4 W 0,0
15.10.2018 23:00:00 7,0 5,6 4 2 8 5 WNW 0,0
15.10.2018 22:00:00 7,0 5,5 2 1 8 5 NW 0,0
15.10.2018 21:00:00 7,0 5,0 1 1 4 2 NNW 0,0
15.10.2018 20:00:00 7,1 4,3 3 2 7 4 NNW -
15.10.2018 19:00:00 7,1 4,1 9 5 19 10 S 0,0
15.10.2018 18:00:00 6,9 3,9 14 8 25 13 S 0,0
15.10.2018 17:00:00 7,3 3,9 15 8 32 18 S 0,0
15.10.2018 16:00:00 6,6 3,6 20 11 29 15 S 0,0
15.10.2018 15:00:00 5,2 3,2 19 10 33 18 S 0,0
15.10.2018 14:00:00 4,9 3,0 23 12 42 23 S -
15.10.2018 13:00:00 4,5 3,2 25 14 54 29 S 0,0
15.10.2018 12:00:00 3,4 1,9 29 16 56 30 S 0,0
15.10.2018 11:00:00 3,3 1,9 23 13 51 28 SSE 0,0
15.10.2018 10:00:00 2,8 1,1 27 15 47 25 S 4,2
15.10.2018 09:00:00 2,9 0,9 26 14 51 27 S 0,2
15.10.2018 08:00:00 2,9 -0,5 30 16 68 37 SSE -
15.10.2018 07:00:00 2,7 -2,0 32 18 62 33 S 0,3
15.10.2018 06:00:00 3,4 -4,5 29 15 42 23 S 0,0
15.10.2018 05:00:00 4,5 -5,7 24 13 37 20 SSE 0,0
15.10.2018 04:00:00 3,8 -3,3 24 13 46 25 S 0,1
15.10.2018 03:00:00 4,5 -1,2 26 14 44 24 S 0,0
15.10.2018 02:00:00 3,7 -0,3 29 16 45 24 S -
15.10.2018 01:00:00 3,7 0,6 22 12 38 21 S 0,0
15.10.2018 00:00:00 3,0 1,5 22 12 32 18 S 0,0
14.10.2018 23:00:00 2,4 1,5 13 7 20 11 S 0,0
14.10.2018 22:00:00 3,0 2,1 1 0 11 6 SSE 0,0
14.10.2018 21:00:00 3,7 2,9 5 3 18 10 NW 0,0
14.10.2018 20:00:00 4,0 3,0 6 4 27 14 NW -
14.10.2018 19:00:00 4,2 3,2 14 8 38 21 NW 0,2
14.10.2018 18:00:00 4,8 3,9 17 9 39 21 NNW 0,1
14.10.2018 17:00:00 4,6 3,8 19 11 39 21 NW 0,4
14.10.2018 16:00:00 4,6 3,8 16 9 33 18 NW 0,6
14.10.2018 15:00:00 4,1 3,2 14 8 26 14 NW 0,0
14.10.2018 14:00:00 3,9 3,0 13 7 31 17 NW -
14.10.2018 13:00:00 3,0 2,1 13 7 26 14 NNW 0,0
14.10.2018 12:00:00 2,3 1,5 16 8 35 19 NW 0,5
14.10.2018 11:00:00 2,0 1,1 17 9 34 19 NW 0,6
14.10.2018 10:00:00 2,3 1,5 19 10 43 23 NW 0,7
14.10.2018 09:00:00 2,8 1,9 18 10 46 25 NW 3,3
14.10.2018 08:00:00 3,9 3,0 16 9 35 19 NW -
14.10.2018 07:00:00 5,5 4,3 11 6 49 27 NW 1,9
14.10.2018 06:00:00 9,8 7,3 8 5 45 25 ESE 0,0
14.10.2018 05:00:00 10,7 8,0 7 4 54 29 SSE 0,4
14.10.2018 04:00:00 10,4 7,4 22 12 55 30 S 2,1
14.10.2018 03:00:00 11,8 7,6 21 11 52 28 S 5,6
14.10.2018 02:00:00 13,3 6,2 16 9 54 29 S -
14.10.2018 01:00:00 14,0 7,3 19 10 46 25 S 0,0
14.10.2018 00:00:00 13,5 7,0 10 6 45 24 SE 0,0
13.10.2018 23:00:00 14,3 6,7 15 8 40 21 SE 0,0
13.10.2018 22:00:00 14,3 6,8 11 6 35 19 SSE 0,0
13.10.2018 21:00:00 14,5 7,3 15 8 42 23 SE 0,0
13.10.2018 20:00:00 14,2 8,0 14 7 37 20 SE -
13.10.2018 19:00:00 14,3 8,5 17 9 34 19 SE 0,0
13.10.2018 18:00:00 14,1 8,9 15 8 53 28 SE 0,0
13.10.2018 17:00:00 14,3 8,7 32 17 53 29 S 0,0
13.10.2018 16:00:00 13,3 9,2 32 17 58 31 S 0,0
13.10.2018 15:00:00 13,1 8,9 37 20 60 32 S 0,0
13.10.2018 14:00:00 - - - - - - - -
13.10.2018 13:00:00 12,1 8,8 36 19 67 36 S 0,0
13.10.2018 12:00:00 11,2 8,4 41 22 61 33 S 0,0
13.10.2018 11:00:00 10,8 8,8 24 13 47 25 S 0,0
13.10.2018 10:00:00 10,5 8,4 32 17 52 28 S 0,0
13.10.2018 09:00:00 10,6 8,5 32 18 58 31 S 0,0
13.10.2018 08:00:00 10,6 8,1 27 14 52 28 S -
13.10.2018 07:00:00 11,0 8,0 31 17 51 28 S 0,0
13.10.2018 06:00:00 12,1 8,5 18 10 53 29 SSE 0,0
13.10.2018 05:00:00 11,8 8,7 37 20 66 36 S 0,0
13.10.2018 04:00:00 11,6 8,3 39 21 57 31 S 0,0
13.10.2018 03:00:00 11,9 8,4 40 21 61 33 S 0,0
13.10.2018 02:00:00 11,7 8,4 29 16 63 34 S -
13.10.2018 01:00:00 11,6 8,1 35 19 68 37 S 0,0
13.10.2018 00:00:00 11,7 8,0 38 21 64 34 S 0,0
12.10.2018 23:00:00 11,7 8,0 27 15 57 31 S 0,0
12.10.2018 22:00:00 11,7 8,0 23 12 51 28 SE 0,0
12.10.2018 21:00:00 11,8 8,1 31 17 62 34 S 0,0
12.10.2018 20:00:00 11,5 8,0 37 20 63 34 S -
12.10.2018 19:00:00 11,7 8,0 32 18 61 33 S 0,0
12.10.2018 18:00:00 11,7 8,4 36 19 61 33 S 0,0
12.10.2018 17:00:00 11,0 8,0 37 20 59 32 S 0,0
12.10.2018 16:00:00 10,5 7,8 40 22 63 34 S 0,0
12.10.2018 15:00:00 9,1 7,3 39 21 66 36 S 0,0
12.10.2018 14:00:00 8,3 6,2 26 14 55 30 S -
12.10.2018 13:00:00 8,4 6,1 25 14 48 26 SE 0,0
12.10.2018 12:00:00 7,8 5,3 25 13 54 29 SE 0,0
12.10.2018 11:00:00 7,5 4,6 26 14 59 32 SE 0,0
12.10.2018 10:00:00 7,5 4,5 24 13 58 32 SE 0,0
12.10.2018 09:00:00 7,4 4,5 24 13 50 27 SSE 0,0
12.10.2018 08:00:00 7,7 4,6 29 15 62 34 S -
12.10.2018 07:00:00 7,6 4,1 31 17 61 33 S 0,0
12.10.2018 06:00:00 7,4 3,2 34 18 65 35 S 0,0
12.10.2018 05:00:00 7,6 3,6 27 15 61 33 SSE 0,0
12.10.2018 04:00:00 7,5 2,7 36 19 76 41 S 0,0
12.10.2018 03:00:00 7,7 3,4 45 24 77 42 S 0,0

tt = temperature
td = dewpoint
ff = wind speed
fx = gusts
dd = wind direction
rr = precipitation

Next stations